METAR Data
IDs: Format: Raw Decoded Include TAF

Data at: 2146 UTC 18 Sep 2018

KGBG 182135Z AUTO 04007KT 10SM -RA SCT045 BKN060 OVC090 19/19 A2997 RMK AO2 P0003 T01930185
KGBG 182115Z AUTO 02007KT 10SM RA SCT045 BKN070 OVC090 19/18 A2999 RMK AO2 P0001 T01930181
KGBG 182055Z AUTO 02008KT 10SM RA OVC100 20/18 A2998 RMK AO2 LTG DSNT SW P0001 60001 T01950179
KGBG 182035Z AUTO 02006KT 10SM -RA SCT050 SCT070 OVC110 20/18 A2999 RMK AO2 P0001 T01970180
KGBG 182015Z AUTO 05005KT 10SM -RA SCT027 BKN070 OVC090 20/18 A2998 RMK AO2 P0001 T01960180
KGBG 181955Z AUTO 04011G20KT 10SM -RA SCT065 OVC090 19/18 A2998 RMK AO2 LTG DSNT W T01930176
KGBG 181935Z AUTO 01018G24KT 10SM RA SCT044 BKN090 OVC110 A3000 RMK AO2
KGBG 181915Z AUTO 01020G27KT 10SM SCT042 SCT060 OVC080 22/18 A2998 RMK AO2 LTG DSNT W T02150179
KGBG 181855Z AUTO 34022G26KT 10SM SCT060 BKN070 OVC090 23/18 A3000 RMK AO2 LTG DSNT N T02340182
KGBG 181835Z AUTO 07024G27KT 10SM BKN065 OVC090 28/19 A2997 RMK AO2 LTG DSNT N AND NW T02760190
KGBG 181815Z AUTO 28009KT 270V080 10SM SCT065 BKN100 29/19 A2997 RMK AO2 LTG DSNT NW T02860190
KGBG 181755Z AUTO 00000KT 10SM CLR 31/16 A2995 RMK AO2 LTG DSNT NW T03050164 10313 20174
KGBG 181735Z AUTO 00000KT 10SM CLR 31/18 A2996 RMK AO2 LTG DSNT NW T03090177
KGBG 181715Z AUTO 00000KT 10SM CLR 31/18 A2996 RMK AO2 LTG DSNT N T03110179
KGBG 181655Z AUTO 00000KT 10SM CLR 31/19 A2996 RMK AO2 LTG DSNT NW T03100185
KGBG 181635Z AUTO 23003KT 10SM CLR 31/19 A2996 RMK AO2 T03050188
KGBG 181615Z AUTO 00000KT 10SM CLR 30/19 A2997 RMK AO2 LTG DSNT NW T02970187
KGBG 181555Z AUTO 00000KT 10SM CLR 29/19 A2997 RMK AO2 T02890188
KGBG 181535Z AUTO 12003KT 10SM CLR 28/19 A2998 RMK AO2 T02830193
KGBG 181515Z AUTO 07003KT 10SM SCT110 28/20 A2998 RMK AO2 T02750197
KGBG 181455Z AUTO 00000KT 10SM OVC100 26/19 A2998 RMK AO2 T02590190
KGBG 181435Z AUTO 00000KT 10SM OVC100 25/19 A2998 RMK AO2 T02470192
KGBG 181415Z AUTO 00000KT 10SM OVC090 24/19 A2997 RMK AO2 T02380192
KGBG 181355Z AUTO 00000KT 7SM OVC090 22/19 A2997 RMK AO2 T02210191
KGBG 181335Z AUTO 00000KT 10SM OVC090 21/19 A2998 RMK AO2 T02060187
KGBG 181315Z AUTO 00000KT 10SM SCT090 20/18 A2998 RMK AO2 T01970181
KGBG 181255Z AUTO 00000KT 10SM SCT090 19/17 A2999 RMK AO2 T01910174
KGBG 181235Z AUTO 00000KT 10SM BKN090 19/17 A2998 RMK AO2 T01870173
KGBG 181215Z AUTO 00000KT 10SM SCT090 18/18 A2998 RMK AO2 T01800175
KGBG 181155Z AUTO 00000KT 7SM CLR 17/17 A2998 RMK AO2 T01730169 10200 20173
KGBG 181135Z AUTO 00000KT 10SM SCT090 18/17 A2997 RMK AO2 LTG DSNT N T01760173
KGBG 181115Z AUTO 00000KT 10SM SCT090 18/17 A2997 RMK AO2 LTG DSNT N T01750171
KGBG 181055Z AUTO 00000KT 10SM CLR 18/18 A2997 RMK AO2 T01790175
KGBG 181035Z AUTO 00000KT 10SM CLR 18/17 A2996 RMK AO2 T01750172
KGBG 181015Z AUTO 00000KT 7SM CLR 18/17 A2996 RMK AO2 T01760173
KGBG 180955Z AUTO 00000KT 10SM CLR 18/17 A2996 RMK AO2 LTG DSNT N T01760173
KGBG 180935Z AUTO 00000KT 10SM CLR 18/18 A2997 RMK AO2 LTG DSNT N T01800177
KGBG 180915Z AUTO 00000KT 10SM CLR 18/18 A2996 RMK AO2 T01800177
KGBG 180855Z AUTO 00000KT 10SM CLR 18/17 A2996 RMK AO2 T01790173
KGBG 180835Z AUTO 00000KT 10SM CLR 19/17 A2996 RMK AO2 T01860168
KGBG 180815Z AUTO 00000KT 10SM CLR 18/17 A2997 RMK AO2 T01820172
KGBG 180755Z AUTO 00000KT 10SM CLR 19/17 A2997 RMK AO2 T01900171
KGBG 180735Z AUTO 00000KT 10SM SCT085 19/17 A2997 RMK AO2 T01900171
KGBG 180715Z AUTO 00000KT 10SM OVC085 20/17 A2997 RMK AO2 T02000172
KGBG 180655Z AUTO 00000KT 10SM BKN085 19/17 A2997 RMK AO2 T01910172
KGBG 180635Z AUTO 00000KT 10SM SCT085 18/18 A2997 RMK AO2 T01820176
KGBG 180615Z AUTO 00000KT 10SM CLR 19/18 A2997 RMK AO2 T01860175
KGBG 180555Z AUTO 00000KT 10SM CLR 19/18 A2997 RMK AO2 T01910184 10271 20190 403260175
KGBG 180535Z AUTO 00000KT 10SM CLR 19/18 A2997 RMK AO2 T01920175
KGBG 180515Z AUTO 00000KT 10SM CLR 19/17 A2996 RMK AO2 T01910173
KGBG 180455Z AUTO 00000KT 10SM SCT095 19/17 A2996 RMK AO2 T01930174
KGBG 180435Z AUTO 00000KT 7SM SCT095 19/18 A2996 RMK AO2 T01910177
KGBG 180415Z AUTO 00000KT 10SM CLR 20/18 A2997 RMK AO2 T01960179
KGBG 180355Z AUTO 00000KT 7SM CLR 20/18 A2997 RMK AO2 T01980181
KGBG 180335Z AUTO 00000KT 7SM CLR 20/18 A2996 RMK AO2 T01960179
KGBG 180315Z AUTO 00000KT 10SM CLR 20/18 A2996 RMK AO2 T02020180
KGBG 180255Z AUTO 00000KT 10SM CLR 20/18 A2996 RMK AO2 T02000180
KGBG 180235Z AUTO 00000KT 10SM CLR 20/18 A2996 RMK AO2 T02040183
KGBG 180215Z AUTO 00000KT 10SM CLR 21/18 A2996 RMK AO2 T02050184
KGBG 180155Z AUTO 00000KT 10SM CLR 22/18 A2995 RMK AO2 T02180183
KGBG 180135Z AUTO 00000KT 10SM CLR 22/18 A2995 RMK AO2 T02220181
KGBG 180115Z AUTO 00000KT 10SM CLR 23/18 A2994 RMK AO2 T02320183
KGBG 180055Z AUTO 00000KT 10SM CLR 24/18 A2994 RMK AO2 T02370182
KGBG 180035Z AUTO 00000KT 10SM CLR 24/18 A2993 RMK AO2 T02440181
KGBG 180010Z AUTO 00000KT 10SM CLR 26/17 A2993 RMK AO2 T02600173
KGBG 172355Z AUTO 27003KT 10SM CLR 27/17 A2993 RMK AO2 T02710172 10326 20271
KGBG 172335Z AUTO 27003KT 10SM CLR 29/17 A2993 RMK AO2 T02880167
KGBG 172315Z AUTO 28005KT 10SM CLR 30/16 A2993 RMK AO2 T03000164
KGBG 172255Z AUTO 30005KT 10SM CLR 30/16 A2992 RMK AO2 T03040164
KGBG 172235Z AUTO 30005KT 10SM CLR 31/16 A2992 RMK AO2 T03090157
KGBG 172215Z AUTO 30005KT 10SM CLR 31/16 A2992 RMK AO2 T03100158
KGBG 172155Z AUTO 29009KT 10SM SCT095 32/15 A2992 RMK AO2 T03170150
KGBG 172135Z AUTO 30006KT 10SM SCT075 BKN095 31/16 A2992 RMK AO2 T03100162
KGBG 172115Z AUTO 06003KT 10SM BKN075 OVC085 32/16 A2992 RMK AO2 T03200160
KGBG 172055Z AUTO 07003KT 10SM SCT085 OVC090 32/17 A2993 RMK AO2 T03210166
KGBG 172035Z AUTO 00000KT 10SM SCT095 32/15 A2993 RMK AO2 T03220148
KGBG 172015Z AUTO 00000KT 10SM SCT095 32/16 A2993 RMK AO2 T03210163
KGBG 171955Z AUTO 24005KT 10SM SCT095 32/16 A2993 RMK AO2 T03180164
KGBG 171935Z AUTO 00000KT 10SM SCT090 32/16 A2993 RMK AO2 T03150157
KGBG 171915Z AUTO 29004KT 10SM SCT090 31/16 A2994 RMK AO2 T03070164
KGBG 171855Z AUTO 00000KT 10SM SCT090 32/16 A2994 RMK AO2 T03170161
KGBG 171835Z AUTO 07006KT 10SM SCT070 BKN090 30/17 A2995 RMK AO2 T03040166
KGBG 171815Z AUTO 00000KT 10SM SCT070 SCT090 32/15 A2995 RMK AO2 T03230153
KGBG 171755Z AUTO 33003KT 10SM SCT070 SCT080 32/15 A2996 RMK AO2 T03170150 10320 20177
KGBG 171735Z AUTO 29005KT 10SM BKN070 32/15 A2997 RMK AO2 T03190153
KGBG 171715Z AUTO 30004KT 10SM SCT070 32/16 A2997 RMK AO2 T03150164
KGBG 171655Z AUTO 04003KT 10SM CLR 31/17 A2998 RMK AO2 T03080167
KGBG 171635Z AUTO 29005KT 10SM CLR 31/17 A2998 RMK AO2 T03050166
KGBG 171615Z AUTO 30005KT 10SM CLR 30/17 A2999 RMK AO2 T03000169
KGBG 171555Z AUTO 28005KT 10SM CLR 30/17 A2999 RMK AO2 T02970170
KGBG 171535Z AUTO 30005KT 10SM CLR 29/17 A2999 RMK AO2 T02940173
KGBG 171515Z AUTO 29003KT 10SM CLR 29/17 A2999 RMK AO2 T02900174
KGBG 171455Z AUTO 30003KT 10SM CLR 29/18 A2999 RMK AO2 T02850178
KGBG 171435Z AUTO 00000KT 10SM CLR 28/19 A2999 RMK AO2 T02760186
KGBG 171415Z AUTO 00000KT 10SM CLR 26/19 A2998 RMK AO2 T02620193
KGBG 171355Z AUTO 00000KT 10SM CLR 25/19 A2999 RMK AO2 T02450193
KGBG 171335Z AUTO 00000KT 10SM CLR 23/19 A2999 RMK AO2 T02310187
KGBG 171315Z AUTO 00000KT 10SM CLR 22/19 A2999 RMK AO2 T02160186
KGBG 171255Z AUTO 00000KT 10SM CLR 20/19 A2999 RMK AO2 T02000186
KGBG 171235Z AUTO 00000KT 7SM CLR 19/18 A2998 RMK AO2 T01860183
KGBG 171215Z AUTO 00000KT 10SM CLR 18/18 A2998 RMK AO2 T01810180
KGBG 171155Z AUTO 00000KT 10SM CLR 18/18 A2998 RMK AO2 T01800177 10209 20175
KGBG 171135Z AUTO 00000KT 7SM CLR 18/18 A2998 RMK AO2 T01780175
KGBG 171115Z AUTO 00000KT 10SM CLR 18/18 A2997 RMK AO2 T01820178
KGBG 171055Z AUTO 00000KT 10SM CLR 19/18 A2997 RMK AO2 T01860180
KGBG 171035Z AUTO 00000KT 10SM CLR 19/18 A2997 RMK AO2 T01890176
KGBG 171015Z AUTO 00000KT 10SM CLR 19/18 A2997 RMK AO2 T01870175
KGBG 170955Z AUTO 00000KT 10SM CLR 19/19 A2997 RMK AO2 T01940187